»·PEaware :: N822JH KYKM-KGEG

N822JH :: KYKM-KGEG

FLIGHT INFORMATION

Flight Status: Arrived
Operator: Privately registered:
United States
More flights under this callsign
Pilot: Anonymous 16594 (16594)
Aircraft: PIPER PA-24 COMMANCHE
(PA24)
More flights by this aircraft type
Origin: KYKM Yakima Air Term/Mcallister
United States
Destination: KGEG Spokane Intl
United States
More flights between these airports :: More routes between these airports
Route: DCT
File this flight plan on PilotEdge
Remarks:
Altitude:
(Current/Filed)
5,500ft
Speed:
(Current/Filed)
158kts
Departed: 12-Sep-17 05:10 PM
Arrived: 12-Sep-17 06:05 PM
Distance/Time
Traveled:
139nm/0:55
Distance/Time
To Go:
Arrived

Flight Plot

Page will automatically refresh every two minutes.

Flight plan parsing failed; only flown route is shown


Map Options




Map Legend


Flown Route
Filed Route
Departure Airport
Arrival Airport
Navaid (VOR, NDB)
Fix

Horizontal Profiles

Position Reports

Time Latitude Longitude Heading Altitude Ground
Speed
12-Sep-17 16:57 46.570366 -120.543256 172 1098ft 0kts
12-Sep-17 16:58 46.570366 -120.543256 172 1098ft 0kts
12-Sep-17 16:59 46.570366 -120.543256 172 1098ft 0kts
12-Sep-17 17:00 46.570366 -120.543256 172 1098ft 0kts
12-Sep-17 17:01 46.570366 -120.543256 172 1098ft 0kts
12-Sep-17 17:02 46.570362 -120.543255 172 1098ft 0kts
12-Sep-17 17:03 46.570358 -120.543255 172 1098ft 0kts
12-Sep-17 17:04 46.570354 -120.543254 172 1098ft 0kts
12-Sep-17 17:05 46.570349 -120.543253 172 1098ft 0kts
12-Sep-17 17:06 46.570345 -120.543252 172 1098ft 0kts
12-Sep-17 17:07 46.570341 -120.543251 172 1098ft 0kts
12-Sep-17 17:08 46.570339 -120.543251 172 1098ft 0kts
12-Sep-17 17:09 46.570336 -120.543250 172 1098ft 0kts
12-Sep-17 17:10 46.568730 -120.541143 110 1098ft 22kts
12-Sep-17 17:11 46.566384 -120.531860 110 1098ft 7kts
12-Sep-17 17:12 46.565997 -120.531077 271 1098ft 0kts
12-Sep-17 17:13 46.565926 -120.531161 192 1098ft 0kts
12-Sep-17 17:14 46.570415 -120.552017 287 1362ft 101kts
12-Sep-17 17:15 46.579571 -120.597657 284 2103ft 123kts
12-Sep-17 17:16 46.592512 -120.640905 288 2990ft 125kts
12-Sep-17 17:17 46.619250 -120.652249 15 3786ft 125kts
12-Sep-17 17:18 46.644160 -120.611967 63 4532ft 131kts
12-Sep-17 17:19 46.660483 -120.560019 64 5335ft 160kts
12-Sep-17 17:20 46.680596 -120.497498 62 5392ft 166kts
12-Sep-17 17:21 46.699939 -120.437754 64 5398ft 172kts
12-Sep-17 17:22 46.720707 -120.372000 63 5411ft 182kts
12-Sep-17 17:23 46.732157 -120.300691 88 5435ft 190kts
12-Sep-17 17:24 46.733747 -120.223943 89 5376ft 183kts
12-Sep-17 17:25 46.741280 -120.157163 76 5371ft 166kts
12-Sep-17 17:26 46.750620 -120.092576 78 5387ft 160kts
12-Sep-17 17:27 46.760851 -120.028916 77 5439ft 181kts
12-Sep-17 17:28 46.785177 -119.959849 60 5413ft 196kts
12-Sep-17 17:29 46.811915 -119.892926 59 5388ft 194kts
12-Sep-17 17:30 46.839042 -119.825660 61 5383ft 196kts
12-Sep-17 17:31 46.866194 -119.757625 58 5412ft 199kts
12-Sep-17 17:32 46.893342 -119.690416 58 5361ft 182kts
12-Sep-17 17:33 46.917097 -119.630657 57 5390ft 189kts
12-Sep-17 17:34 46.944133 -119.564310 63 5352ft 178kts
12-Sep-17 17:35 46.963815 -119.502279 65 5388ft 184kts
12-Sep-17 17:36 46.986827 -119.432620 63 5404ft 195kts
12-Sep-17 17:37 47.009230 -119.362321 65 5361ft 178kts
12-Sep-17 17:38 47.018583 -119.333269 65 5483ft 158kts
12-Sep-17 17:39 47.039071 -119.269779 67 5405ft 189kts
12-Sep-17 17:40 47.061226 -119.202893 63 5362ft 168kts
12-Sep-17 17:41 47.081065 -119.143375 63 5367ft 164kts
12-Sep-17 17:42 47.100994 -119.082129 62 5366ft 162kts
12-Sep-17 17:43 47.120685 -119.023947 63 5389ft 167kts
12-Sep-17 17:44 47.140872 -118.958568 67 5403ft 186kts
12-Sep-17 17:45 47.162894 -118.888770 61 5399ft 194kts
12-Sep-17 17:46 47.186165 -118.819675 66 5364ft 178kts
12-Sep-17 17:47 47.206480 -118.757309 61 5381ft 180kts
12-Sep-17 17:48 47.231566 -118.692430 61 5403ft 187kts
12-Sep-17 17:49 47.252576 -118.622745 67 5408ft 185kts
12-Sep-17 17:50 47.276181 -118.555072 60 5432ft 193kts
12-Sep-17 17:51 47.301722 -118.486185 67 5486ft 197kts
12-Sep-17 17:52 47.323542 -118.413682 64 5658ft 196kts
12-Sep-17 17:53 47.351250 -118.346012 59 5646ft 199kts
12-Sep-17 17:54 47.372652 -118.273307 66 5711ft 199kts
12-Sep-17 17:55 47.392260 -118.213850 60 5722ft 190kts
12-Sep-17 17:56 47.421775 -118.131755 64 5622ft 199kts
12-Sep-17 17:57 47.442481 -118.058776 59 5503ft 186kts
12-Sep-17 17:58 47.464374 -118.006247 64 5445ft 173kts
12-Sep-17 17:59 47.485222 -117.929380 66 5473ft 188kts
12-Sep-17 18:00 47.508493 -117.873586 57 5439ft 174kts
12-Sep-17 18:01 47.527929 -117.810792 73 5201ft 166kts
12-Sep-17 18:02 47.549123 -117.749820 60 4718ft 174kts
12-Sep-17 18:03 47.564294 -117.685667 61 4467ft 159kts
12-Sep-17 18:04 47.586371 -117.625503 77 3852ft 166kts
12-Sep-17 18:05 47.595745 -117.558796 78 3601ft 167kts
12-Sep-17 18:06 47.605806 -117.492552 77 3252ft 156kts
12-Sep-17 18:07 47.624838 -117.463097 286 3152ft 102kts
12-Sep-17 18:08 47.616825 -117.502142 260 2662ft 90kts
12-Sep-17 18:09 47.616801 -117.534285 271 2375ft 36kts
12-Sep-17 18:10 47.617610 -117.534883 45 2375ft 4kts
12-Sep-17 18:11 47.622447 -117.527606 44 2375ft 17kts
12-Sep-17 18:12 47.625214 -117.523075 117 2375ft 13kts
12-Sep-17 18:13 47.626580 -117.519700 328 2375ft 9kts
12-Sep-17 18:14 47.626629 -117.519746 328 2375ft 0kts

Navigation Log

Ident Type
Flight plan parsing failed, navigation log unavailable